map of FNC home
FNC - Airport
Location
City:  Funchal, Região Autónoma da Madeira (Madeira), Portugal
Name:Madeira Airport
ICAO:LPMA
IATA:FNC

Details
Type:Airport (Aerodrome, Airfield)
Use:Public/Civil, International (customs port of entry)
Latitude:32°41'52"N (32.697889)
Longitude:16°46'28"W (-16.774452)
Datum:WGS 1984
Elevation:192 ft (59 m)
Variation:4.66°W (WMM2015v2 magnetic declination)
0.16° annual change
Runways:1
Longest:9110 × 148 ft (2777 × 45 m), paved

Time
Time Zone:UTC+0 (DST+1)
Local Time:

Weather
METAR:LPMA 041400Z 04012KT 9999 SCT018 SCT030 17/10 Q1026
TAF:LPMA 041100Z 0412/0512 02013KT 9999 SCT016
TEMPO 0412/0512 FEW015 BKN030

Related Locations
Nearby:
Farthest:LDH: 12187 mi / 19613 km
Lord Howe Island, NSW, AU

Find:

   beyond  
but within

Other Information
Maps:
NOTAMs:
Links:
Sources:

  
  • flag of Portugal
  • flag of Região Autónoma da Madeira (Madeira)
  

Sectional Chart

Flight Planning
at skyvector.com

Satellite Image

Google Maps Satellite view

 

Copyright © 2004-2019 Karl L. Swartz. All rights reserved.
The Great Circle Mapper name and logo are trademarks of the Great Circle Mapper.
All other trademarks mentioned herein belong to their respective owners.
Please see credits for attibutions and further copyright information.

  Follow gcmap on Facebook Follow gcmap on Twitter GCmap on LinkedIn

hCard Microformat

Geo Microformat